sensor_id;sensor_type;location;lat;lon;timestamp;P1;durP1;ratioP1;P2;durP2;ratioP2
42514;SDS011;28144;49.920;18.730;2022-08-19T00:04:21;19.08;;;10.25;;
42514;SDS011;28144;49.920;18.730;2022-08-19T00:06:49;17.95;;;11.18;;
42514;SDS011;28144;49.920;18.730;2022-08-19T00:11:43;14.65;;;11.20;;
42514;SDS011;28144;49.920;18.730;2022-08-19T00:14:09;17.70;;;11.65;;
42514;SDS011;28144;49.920;18.730;2022-08-19T00:16:37;18.75;;;11.10;;
42514;SDS011;28144;49.920;18.730;2022-08-19T00:19:04;16.85;;;11.65;;
42514;SDS011;28144;49.920;18.730;2022-08-19T00:23:56;19.73;;;13.65;;
42514;SDS011;28144;49.920;18.730;2022-08-19T00:26:27;17.45;;;12.55;;
42514;SDS011;28144;49.920;18.730;2022-08-19T00:28:53;16.25;;;12.38;;
42514;SDS011;28144;49.920;18.730;2022-08-19T00:31:19;18.10;;;12.55;;
42514;SDS011;28144;49.920;18.730;2022-08-19T00:33:44;18.00;;;12.48;;
42514;SDS011;28144;49.920;18.730;2022-08-19T00:36:10;20.30;;;12.95;;
42514;SDS011;28144;49.920;18.730;2022-08-19T00:38:37;18.95;;;12.00;;
42514;SDS011;28144;49.920;18.730;2022-08-19T00:41:06;21.73;;;13.07;;
42514;SDS011;28144;49.920;18.730;2022-08-19T00:43:32;21.70;;;13.02;;
42514;SDS011;28144;49.920;18.730;2022-08-19T00:45:58;19.52;;;11.88;;
42514;SDS011;28144;49.920;18.730;2022-08-19T00:53:16;19.80;;;13.93;;
42514;SDS011;28144;49.920;18.730;2022-08-19T00:55:46;17.08;;;12.95;;
42514;SDS011;28144;49.920;18.730;2022-08-19T00:58:16;22.88;;;13.63;;
42514;SDS011;28144;49.920;18.730;2022-08-19T01:00:44;18.33;;;12.85;;
42514;SDS011;28144;49.920;18.730;2022-08-19T01:03:11;21.70;;;13.82;;
42514;SDS011;28144;49.920;18.730;2022-08-19T01:05:40;21.75;;;14.48;;
42514;SDS011;28144;49.920;18.730;2022-08-19T01:08:06;20.58;;;14.13;;
42514;SDS011;28144;49.920;18.730;2022-08-19T01:13:06;19.45;;;13.75;;
42514;SDS011;28144;49.920;18.730;2022-08-19T01:15:32;18.50;;;13.50;;
42514;SDS011;28144;49.920;18.730;2022-08-19T01:18:01;23.10;;;14.23;;
42514;SDS011;28144;49.920;18.730;2022-08-19T01:20:30;17.95;;;13.57;;
42514;SDS011;28144;49.920;18.730;2022-08-19T01:22:57;17.70;;;13.43;;
42514;SDS011;28144;49.920;18.730;2022-08-19T01:25:25;19.83;;;13.57;;
42514;SDS011;28144;49.920;18.730;2022-08-19T01:27:57;19.92;;;13.60;;
42514;SDS011;28144;49.920;18.730;2022-08-19T01:30:25;20.15;;;13.73;;
42514;SDS011;28144;49.920;18.730;2022-08-19T01:32:53;17.02;;;12.95;;
42514;SDS011;28144;49.920;18.730;2022-08-19T01:38:02;19.20;;;13.15;;
42514;SDS011;28144;49.920;18.730;2022-08-19T01:40:34;19.38;;;14.02;;
42514;SDS011;28144;49.920;18.730;2022-08-19T01:43:02;24.67;;;15.07;;
42514;SDS011;28144;49.920;18.730;2022-08-19T01:45:28;25.23;;;14.90;;
42514;SDS011;28144;49.920;18.730;2022-08-19T01:47:56;22.05;;;13.65;;
42514;SDS011;28144;49.920;18.730;2022-08-19T01:50:22;20.00;;;14.57;;
42514;SDS011;28144;49.920;18.730;2022-08-19T01:52:48;19.80;;;13.57;;
42514;SDS011;28144;49.920;18.730;2022-08-19T01:55:16;18.15;;;14.05;;
42514;SDS011;28144;49.920;18.730;2022-08-19T01:57:44;17.42;;;13.70;;
42514;SDS011;28144;49.920;18.730;2022-08-19T02:00:13;15.98;;;13.07;;
42514;SDS011;28144;49.920;18.730;2022-08-19T02:02:41;17.83;;;13.30;;
42514;SDS011;28144;49.920;18.730;2022-08-19T02:10:01;21.77;;;13.35;;
42514;SDS011;28144;49.920;18.730;2022-08-19T02:12:34;19.38;;;14.60;;
42514;SDS011;28144;49.920;18.730;2022-08-19T02:15:00;18.33;;;13.60;;
42514;SDS011;28144;49.920;18.730;2022-08-19T02:17:27;19.75;;;15.07;;
42514;SDS011;28144;49.920;18.730;2022-08-19T02:19:54;20.73;;;14.48;;
42514;SDS011;28144;49.920;18.730;2022-08-19T02:22:23;20.38;;;14.65;;
42514;SDS011;28144;49.920;18.730;2022-08-19T02:24:51;19.30;;;14.45;;
42514;SDS011;28144;49.920;18.730;2022-08-19T02:27:17;19.20;;;13.80;;
42514;SDS011;28144;49.920;18.730;2022-08-19T02:29:43;19.63;;;13.75;;
42514;SDS011;28144;49.920;18.730;2022-08-19T02:32:11;18.67;;;14.55;;
42514;SDS011;28144;49.920;18.730;2022-08-19T02:34:36;18.80;;;13.45;;
42514;SDS011;28144;49.920;18.730;2022-08-19T02:37:02;16.90;;;12.95;;
42514;SDS011;28144;49.920;18.730;2022-08-19T02:39:28;18.92;;;13.68;;
42514;SDS011;28144;49.920;18.730;2022-08-19T02:41:53;18.80;;;14.30;;
42514;SDS011;28144;49.920;18.730;2022-08-19T02:44:19;21.88;;;15.05;;
42514;SDS011;28144;49.920;18.730;2022-08-19T02:46:46;23.50;;;14.68;;
42514;SDS011;28144;49.920;18.730;2022-08-19T02:49:13;19.35;;;14.88;;
42514;SDS011;28144;49.920;18.730;2022-08-19T02:51:42;18.25;;;14.43;;
42514;SDS011;28144;49.920;18.730;2022-08-19T02:54:09;24.73;;;14.57;;
42514;SDS011;28144;49.920;18.730;2022-08-19T02:56:37;20.30;;;14.75;;
42514;SDS011;28144;49.920;18.730;2022-08-19T02:59:04;21.20;;;14.73;;
42514;SDS011;28144;49.920;18.730;2022-08-19T03:01:33;20.73;;;14.45;;
42514;SDS011;28144;49.920;18.730;2022-08-19T03:04:00;20.58;;;13.23;;
42514;SDS011;28144;49.920;18.730;2022-08-19T03:06:29;19.30;;;13.98;;
42514;SDS011;28144;49.920;18.730;2022-08-19T03:08:55;21.67;;;14.23;;
42514;SDS011;28144;49.920;18.730;2022-08-19T03:11:22;18.30;;;14.65;;
42514;SDS011;28144;49.920;18.730;2022-08-19T03:13:49;21.48;;;14.20;;
42514;SDS011;28144;49.920;18.730;2022-08-19T03:16:16;19.25;;;14.15;;
42514;SDS011;28144;49.920;18.730;2022-08-19T03:18:43;19.33;;;14.38;;
42514;SDS011;28144;49.920;18.730;2022-08-19T03:21:09;18.00;;;14.25;;
42514;SDS011;28144;49.920;18.730;2022-08-19T03:23:41;19.15;;;14.50;;
42514;SDS011;28144;49.920;18.730;2022-08-19T03:26:06;18.30;;;13.23;;
42514;SDS011;28144;49.920;18.730;2022-08-19T03:28:33;18.73;;;14.15;;
42514;SDS011;28144;49.920;18.730;2022-08-19T03:33:29;19.85;;;14.07;;
42514;SDS011;28144;49.920;18.730;2022-08-19T03:36:03;24.55;;;14.30;;
42514;SDS011;28144;49.920;18.730;2022-08-19T03:38:37;17.02;;;13.75;;
42514;SDS011;28144;49.920;18.730;2022-08-19T03:41:09;18.88;;;14.40;;
42514;SDS011;28144;49.920;18.730;2022-08-19T03:43:37;18.02;;;13.80;;
42514;SDS011;28144;49.920;18.730;2022-08-19T03:46:06;22.65;;;14.38;;
42514;SDS011;28144;49.920;18.730;2022-08-19T03:48:34;27.48;;;13.93;;
42514;SDS011;28144;49.920;18.730;2022-08-19T03:51:01;19.90;;;13.85;;
42514;SDS011;28144;49.920;18.730;2022-08-19T03:55:53;19.25;;;15.00;;
42514;SDS011;28144;49.920;18.730;2022-08-19T04:00:45;19.35;;;13.95;;
42514;SDS011;28144;49.920;18.730;2022-08-19T04:03:11;20.20;;;14.45;;
42514;SDS011;28144;49.920;18.730;2022-08-19T04:05:37;17.38;;;14.55;;
42514;SDS011;28144;49.920;18.730;2022-08-19T04:08:03;27.48;;;14.30;;
42514;SDS011;28144;49.920;18.730;2022-08-19T04:10:34;22.88;;;13.52;;
42514;SDS011;28144;49.920;18.730;2022-08-19T04:13:01;22.23;;;14.20;;
42514;SDS011;28144;49.920;18.730;2022-08-19T04:15:27;30.25;;;15.15;;
42514;SDS011;28144;49.920;18.730;2022-08-19T04:17:56;20.30;;;14.45;;
42514;SDS011;28144;49.920;18.730;2022-08-19T04:20:22;24.58;;;14.63;;
42514;SDS011;28144;49.920;18.730;2022-08-19T04:22:47;19.63;;;13.95;;
42514;SDS011;28144;49.920;18.730;2022-08-19T04:25:13;21.85;;;14.57;;
42514;SDS011;28144;49.920;18.730;2022-08-19T04:27:39;22.92;;;14.52;;
42514;SDS011;28144;49.920;18.730;2022-08-19T04:30:08;19.02;;;14.48;;
42514;SDS011;28144;49.920;18.730;2022-08-19T04:35:00;24.30;;;14.80;;
42514;SDS011;28144;49.920;18.730;2022-08-19T04:37:26;20.75;;;13.50;;
42514;SDS011;28144;49.920;18.730;2022-08-19T04:39:52;19.55;;;13.13;;
42514;SDS011;28144;49.920;18.730;2022-08-19T04:42:47;16.85;;;12.55;;
42514;SDS011;28144;49.920;18.730;2022-08-19T04:45:13;20.35;;;12.52;;
42514;SDS011;28144;49.920;18.730;2022-08-19T04:47:40;16.33;;;12.20;;
42514;SDS011;28144;49.920;18.730;2022-08-19T04:50:07;22.33;;;13.15;;
42514;SDS011;28144;49.920;18.730;2022-08-19T04:52:34;19.73;;;13.32;;
42514;SDS011;28144;49.920;18.730;2022-08-19T04:55:00;19.05;;;13.30;;
42514;SDS011;28144;49.920;18.730;2022-08-19T04:57:25;16.15;;;12.88;;
42514;SDS011;28144;49.920;18.730;2022-08-19T04:59:55;23.42;;;13.48;;
42514;SDS011;28144;49.920;18.730;2022-08-19T05:02:22;17.63;;;12.73;;
42514;SDS011;28144;49.920;18.730;2022-08-19T05:04:51;17.35;;;12.50;;
42514;SDS011;28144;49.920;18.730;2022-08-19T05:07:22;21.38;;;11.88;;
42514;SDS011;28144;49.920;18.730;2022-08-19T05:09:48;21.45;;;11.82;;
42514;SDS011;28144;49.920;18.730;2022-08-19T05:12:14;19.42;;;11.55;;
42514;SDS011;28144;49.920;18.730;2022-08-19T05:14:40;19.98;;;12.35;;
42514;SDS011;28144;49.920;18.730;2022-08-19T05:17:06;14.75;;;11.13;;
42514;SDS011;28144;49.920;18.730;2022-08-19T05:19:32;16.40;;;11.43;;
42514;SDS011;28144;49.920;18.730;2022-08-19T05:22:16;18.05;;;12.40;;
42514;SDS011;28144;49.920;18.730;2022-08-19T05:24:58;17.40;;;12.15;;
42514;SDS011;28144;49.920;18.730;2022-08-19T05:27:25;18.45;;;12.57;;
42514;SDS011;28144;49.920;18.730;2022-08-19T05:29:51;15.40;;;11.93;;
42514;SDS011;28144;49.920;18.730;2022-08-19T05:32:17;16.55;;;12.38;;
42514;SDS011;28144;49.920;18.730;2022-08-19T05:34:42;18.88;;;12.52;;
42514;SDS011;28144;49.920;18.730;2022-08-19T05:37:08;17.20;;;13.20;;
42514;SDS011;28144;49.920;18.730;2022-08-19T05:39:35;20.75;;;13.90;;
42514;SDS011;28144;49.920;18.730;2022-08-19T05:42:03;21.23;;;13.10;;
42514;SDS011;28144;49.920;18.730;2022-08-19T05:44:33;21.42;;;13.68;;
42514;SDS011;28144;49.920;18.730;2022-08-19T05:47:01;21.60;;;13.63;;
42514;SDS011;28144;49.920;18.730;2022-08-19T05:49:28;17.58;;;12.43;;
42514;SDS011;28144;49.920;18.730;2022-08-19T05:51:54;16.98;;;12.07;;
42514;SDS011;28144;49.920;18.730;2022-08-19T05:54:21;21.63;;;12.05;;
42514;SDS011;28144;49.920;18.730;2022-08-19T05:56:51;22.98;;;12.13;;
42514;SDS011;28144;49.920;18.730;2022-08-19T05:59:19;21.52;;;11.63;;
42514;SDS011;28144;49.920;18.730;2022-08-19T06:01:46;20.15;;;10.45;;
42514;SDS011;28144;49.920;18.730;2022-08-19T06:04:16;17.42;;;10.00;;
42514;SDS011;28144;49.920;18.730;2022-08-19T06:06:44;15.52;;;10.45;;
42514;SDS011;28144;49.920;18.730;2022-08-19T06:09:13;17.05;;;9.73;;
42514;SDS011;28144;49.920;18.730;2022-08-19T06:11:40;22.80;;;9.18;;
42514;SDS011;28144;49.920;18.730;2022-08-19T06:14:13;14.15;;;9.52;;
42514;SDS011;28144;49.920;18.730;2022-08-19T06:16:41;13.80;;;9.43;;
42514;SDS011;28144;49.920;18.730;2022-08-19T06:19:09;12.20;;;9.43;;
42514;SDS011;28144;49.920;18.730;2022-08-19T06:21:39;14.85;;;8.68;;
42514;SDS011;28144;49.920;18.730;2022-08-19T06:24:07;23.40;;;9.27;;
42514;SDS011;28144;49.920;18.730;2022-08-19T06:26:36;12.60;;;9.10;;
42514;SDS011;28144;49.920;18.730;2022-08-19T06:29:03;14.52;;;9.10;;
42514;SDS011;28144;49.920;18.730;2022-08-19T06:31:32;16.50;;;9.27;;
42514;SDS011;28144;49.920;18.730;2022-08-19T06:34:00;14.95;;;9.38;;
42514;SDS011;28144;49.920;18.730;2022-08-19T06:36:29;16.08;;;9.20;;
42514;SDS011;28144;49.920;18.730;2022-08-19T06:39:00;15.73;;;9.20;;
42514;SDS011;28144;49.920;18.730;2022-08-19T06:41:27;15.05;;;10.43;;
42514;SDS011;28144;49.920;18.730;2022-08-19T06:43:53;19.58;;;9.23;;
42514;SDS011;28144;49.920;18.730;2022-08-19T06:46:19;17.67;;;9.73;;
42514;SDS011;28144;49.920;18.730;2022-08-19T06:48:45;14.30;;;10.48;;
42514;SDS011;28144;49.920;18.730;2022-08-19T06:51:15;22.20;;;9.68;;
42514;SDS011;28144;49.920;18.730;2022-08-19T06:53:44;14.48;;;9.60;;
42514;SDS011;28144;49.920;18.730;2022-08-19T06:56:14;13.02;;;8.98;;
42514;SDS011;28144;49.920;18.730;2022-08-19T06:58:41;21.00;;;9.75;;
42514;SDS011;28144;49.920;18.730;2022-08-19T07:01:07;13.50;;;8.50;;
42514;SDS011;28144;49.920;18.730;2022-08-19T07:03:34;22.55;;;8.98;;
42514;SDS011;28144;49.920;18.730;2022-08-19T07:06:04;13.85;;;8.55;;
42514;SDS011;28144;49.920;18.730;2022-08-19T07:08:32;13.45;;;8.27;;
42514;SDS011;28144;49.920;18.730;2022-08-19T07:10:57;16.15;;;9.00;;
42514;SDS011;28144;49.920;18.730;2022-08-19T07:13:23;18.73;;;9.00;;
42514;SDS011;28144;49.920;18.730;2022-08-19T07:15:49;14.48;;;8.27;;
42514;SDS011;28144;49.920;18.730;2022-08-19T07:18:16;14.90;;;8.32;;
42514;SDS011;28144;49.920;18.730;2022-08-19T07:20:43;15.40;;;8.82;;
42514;SDS011;28144;49.920;18.730;2022-08-19T07:23:09;19.27;;;8.82;;
42514;SDS011;28144;49.920;18.730;2022-08-19T07:28:02;15.27;;;9.02;;
42514;SDS011;28144;49.920;18.730;2022-08-19T07:30:28;17.48;;;8.73;;
42514;SDS011;28144;49.920;18.730;2022-08-19T07:32:54;16.98;;;8.55;;
42514;SDS011;28144;49.920;18.730;2022-08-19T07:35:21;18.65;;;9.90;;
42514;SDS011;28144;49.920;18.730;2022-08-19T07:37:47;15.52;;;9.52;;
42514;SDS011;28144;49.920;18.730;2022-08-19T07:42:39;17.48;;;10.05;;
42514;SDS011;28144;49.920;18.730;2022-08-19T07:47:31;21.30;;;9.00;;
42514;SDS011;28144;49.920;18.730;2022-08-19T07:49:56;24.50;;;9.50;;
42514;SDS011;28144;49.920;18.730;2022-08-19T07:52:22;16.10;;;9.52;;
42514;SDS011;28144;49.920;18.730;2022-08-19T07:57:15;15.70;;;8.73;;
42514;SDS011;28144;49.920;18.730;2022-08-19T07:59:41;16.88;;;9.00;;
42514;SDS011;28144;49.920;18.730;2022-08-19T08:04:33;16.15;;;7.72;;
42514;SDS011;28144;49.920;18.730;2022-08-19T08:07:17;18.23;;;7.88;;
42514;SDS011;28144;49.920;18.730;2022-08-19T08:10:02;17.38;;;8.80;;
42514;SDS011;28144;49.920;18.730;2022-08-19T08:12:32;11.93;;;7.82;;
42514;SDS011;28144;49.920;18.730;2022-08-19T08:15:04;23.08;;;7.50;;
42514;SDS011;28144;49.920;18.730;2022-08-19T08:17:42;17.42;;;7.35;;
42514;SDS011;28144;49.920;18.730;2022-08-19T08:20:08;10.55;;;6.35;;
42514;SDS011;28144;49.920;18.730;2022-08-19T08:22:34;13.52;;;6.82;;
42514;SDS011;28144;49.920;18.730;2022-08-19T08:25:21;13.15;;;7.75;;
42514;SDS011;28144;49.920;18.730;2022-08-19T08:27:48;16.17;;;7.35;;
42514;SDS011;28144;49.920;18.730;2022-08-19T08:30:20;14.05;;;6.78;;
42514;SDS011;28144;49.920;18.730;2022-08-19T08:32:48;12.63;;;6.97;;
42514;SDS011;28144;49.920;18.730;2022-08-19T08:35:15;11.95;;;7.07;;
42514;SDS011;28144;49.920;18.730;2022-08-19T08:37:46;9.30;;;6.05;;
42514;SDS011;28144;49.920;18.730;2022-08-19T08:43:00;13.32;;;5.88;;
42514;SDS011;28144;49.920;18.730;2022-08-19T08:45:35;11.77;;;5.80;;
42514;SDS011;28144;49.920;18.730;2022-08-19T08:48:18;10.07;;;6.32;;
42514;SDS011;28144;49.920;18.730;2022-08-19T08:51:11;10.07;;;5.72;;
42514;SDS011;28144;49.920;18.730;2022-08-19T08:53:40;14.93;;;5.82;;
42514;SDS011;28144;49.920;18.730;2022-08-19T08:56:08;9.90;;;5.68;;
42514;SDS011;28144;49.920;18.730;2022-08-19T09:01:42;14.68;;;6.70;;
42514;SDS011;28144;49.920;18.730;2022-08-19T09:04:08;12.73;;;6.53;;
42514;SDS011;28144;49.920;18.730;2022-08-19T09:09:14;21.92;;;6.20;;
42514;SDS011;28144;49.920;18.730;2022-08-19T09:14:32;13.10;;;6.22;;
42514;SDS011;28144;49.920;18.730;2022-08-19T09:17:09;10.93;;;5.57;;
42514;SDS011;28144;49.920;18.730;2022-08-19T09:19:35;19.58;;;6.75;;
42514;SDS011;28144;49.920;18.730;2022-08-19T09:22:12;12.32;;;5.85;;
42514;SDS011;28144;49.920;18.730;2022-08-19T09:27:03;10.02;;;6.32;;
42514;SDS011;28144;49.920;18.730;2022-08-19T09:31:55;16.38;;;6.70;;
42514;SDS011;28144;49.920;18.730;2022-08-19T09:36:47;8.95;;;6.07;;
42514;SDS011;28144;49.920;18.730;2022-08-19T09:39:14;14.77;;;6.50;;
42514;SDS011;28144;49.920;18.730;2022-08-19T09:44:05;10.00;;;6.47;;
42514;SDS011;28144;49.920;18.730;2022-08-19T09:48:58;12.82;;;6.38;;
42514;SDS011;28144;49.920;18.730;2022-08-19T09:51:25;14.00;;;6.28;;
42514;SDS011;28144;49.920;18.730;2022-08-19T09:53:54;13.93;;;6.60;;
42514;SDS011;28144;49.920;18.730;2022-08-19T09:56:21;12.63;;;6.35;;
42514;SDS011;28144;49.920;18.730;2022-08-19T09:58:48;17.67;;;6.63;;
42514;SDS011;28144;49.920;18.730;2022-08-19T10:01:21;14.23;;;6.55;;
42514;SDS011;28144;49.920;18.730;2022-08-19T10:06:17;15.35;;;6.50;;
42514;SDS011;28144;49.920;18.730;2022-08-19T10:08:44;7.63;;;5.45;;
42514;SDS011;28144;49.920;18.730;2022-08-19T10:11:11;10.25;;;6.05;;
42514;SDS011;28144;49.920;18.730;2022-08-19T10:13:36;11.40;;;6.25;;
42514;SDS011;28144;49.920;18.730;2022-08-19T10:16:07;14.25;;;6.40;;
42514;SDS011;28144;49.920;18.730;2022-08-19T10:18:35;15.85;;;6.60;;
42514;SDS011;28144;49.920;18.730;2022-08-19T10:21:11;10.60;;;6.40;;
42514;SDS011;28144;49.920;18.730;2022-08-19T10:23:42;8.65;;;6.78;;
42514;SDS011;28144;49.920;18.730;2022-08-19T10:26:11;14.82;;;6.13;;
42514;SDS011;28144;49.920;18.730;2022-08-19T10:28:37;8.40;;;5.68;;
42514;SDS011;28144;49.920;18.730;2022-08-19T10:31:04;8.45;;;5.78;;
42514;SDS011;28144;49.920;18.730;2022-08-19T10:33:35;11.00;;;6.15;;
42514;SDS011;28144;49.920;18.730;2022-08-19T10:36:03;12.60;;;6.20;;
42514;SDS011;28144;49.920;18.730;2022-08-19T10:38:30;15.45;;;7.53;;
42514;SDS011;28144;49.920;18.730;2022-08-19T10:40:56;8.75;;;7.05;;
42514;SDS011;28144;49.920;18.730;2022-08-19T10:43:22;9.20;;;6.47;;
42514;SDS011;28144;49.920;18.730;2022-08-19T10:45:51;8.80;;;6.30;;
42514;SDS011;28144;49.920;18.730;2022-08-19T10:48:20;10.02;;;6.35;;
42514;SDS011;28144;49.920;18.730;2022-08-19T10:50:45;11.55;;;6.85;;
42514;SDS011;28144;49.920;18.730;2022-08-19T10:53:30;12.77;;;6.63;;
42514;SDS011;28144;49.920;18.730;2022-08-19T10:55:55;11.63;;;6.53;;
42514;SDS011;28144;49.920;18.730;2022-08-19T10:58:40;10.77;;;6.30;;
42514;SDS011;28144;49.920;18.730;2022-08-19T11:01:06;14.30;;;7.10;;
42514;SDS011;28144;49.920;18.730;2022-08-19T11:03:32;12.40;;;6.50;;
42514;SDS011;28144;49.920;18.730;2022-08-19T11:06:02;13.50;;;6.78;;
42514;SDS011;28144;49.920;18.730;2022-08-19T11:08:30;17.23;;;7.65;;
42514;SDS011;28144;49.920;18.730;2022-08-19T11:10:57;15.80;;;7.05;;
42514;SDS011;28144;49.920;18.730;2022-08-19T11:13:30;11.70;;;7.05;;
42514;SDS011;28144;49.920;18.730;2022-08-19T11:15:59;11.18;;;6.93;;
42514;SDS011;28144;49.920;18.730;2022-08-19T11:18:26;19.52;;;7.53;;
42514;SDS011;28144;49.920;18.730;2022-08-19T11:20:52;13.75;;;7.80;;
42514;SDS011;28144;49.920;18.730;2022-08-19T11:23:18;10.57;;;6.95;;
42514;SDS011;28144;49.920;18.730;2022-08-19T11:25:44;10.70;;;7.35;;
42514;SDS011;28144;49.920;18.730;2022-08-19T11:28:11;11.30;;;6.57;;
42514;SDS011;28144;49.920;18.730;2022-08-19T11:30:37;8.48;;;6.57;;
42514;SDS011;28144;49.920;18.730;2022-08-19T11:33:03;13.55;;;6.80;;
42514;SDS011;28144;49.920;18.730;2022-08-19T11:35:29;12.30;;;6.85;;
42514;SDS011;28144;49.920;18.730;2022-08-19T11:37:55;12.43;;;6.57;;
42514;SDS011;28144;49.920;18.730;2022-08-19T11:40:23;11.43;;;6.68;;
42514;SDS011;28144;49.920;18.730;2022-08-19T11:42:48;10.77;;;6.30;;
42514;SDS011;28144;49.920;18.730;2022-08-19T11:45:20;15.90;;;6.82;;
42514;SDS011;28144;49.920;18.730;2022-08-19T11:47:46;13.55;;;7.13;;
42514;SDS011;28144;49.920;18.730;2022-08-19T11:50:13;10.43;;;6.90;;
42514;SDS011;28144;49.920;18.730;2022-08-19T11:52:39;13.30;;;6.35;;
42514;SDS011;28144;49.920;18.730;2022-08-19T11:55:05;13.25;;;6.78;;
42514;SDS011;28144;49.920;18.730;2022-08-19T11:57:31;18.88;;;7.47;;
42514;SDS011;28144;49.920;18.730;2022-08-19T11:59:57;13.93;;;6.88;;
42514;SDS011;28144;49.920;18.730;2022-08-19T12:02:23;9.90;;;6.40;;
42514;SDS011;28144;49.920;18.730;2022-08-19T12:04:49;13.38;;;6.68;;
42514;SDS011;28144;49.920;18.730;2022-08-19T12:07:14;14.18;;;7.05;;
42514;SDS011;28144;49.920;18.730;2022-08-19T12:09:40;13.38;;;6.70;;
42514;SDS011;28144;49.920;18.730;2022-08-19T12:12:06;12.25;;;6.78;;
42514;SDS011;28144;49.920;18.730;2022-08-19T12:14:32;14.27;;;7.00;;
42514;SDS011;28144;49.920;18.730;2022-08-19T12:16:58;12.95;;;6.72;;
42514;SDS011;28144;49.920;18.730;2022-08-19T12:21:50;9.00;;;7.25;;
42514;SDS011;28144;49.920;18.730;2022-08-19T12:24:16;10.15;;;6.72;;
42514;SDS011;28144;49.920;18.730;2022-08-19T12:26:48;11.65;;;7.10;;
42514;SDS011;28144;49.920;18.730;2022-08-19T12:29:14;11.23;;;6.97;;
42514;SDS011;28144;49.920;18.730;2022-08-19T12:34:47;16.33;;;7.05;;
42514;SDS011;28144;49.920;18.730;2022-08-19T12:40:53;11.85;;;7.13;;
42514;SDS011;28144;49.920;18.730;2022-08-19T12:43:19;11.38;;;6.50;;
42514;SDS011;28144;49.920;18.730;2022-08-19T12:45:45;15.82;;;6.85;;
42514;SDS011;28144;49.920;18.730;2022-08-19T12:48:11;16.10;;;7.55;;
42514;SDS011;28144;49.920;18.730;2022-08-19T12:53:47;15.18;;;7.07;;
42514;SDS011;28144;49.920;18.730;2022-08-19T12:59:55;10.75;;;6.30;;
42514;SDS011;28144;49.920;18.730;2022-08-19T13:02:22;9.45;;;6.45;;
42514;SDS011;28144;49.920;18.730;2022-08-19T13:04:47;8.15;;;5.93;;
42514;SDS011;28144;49.920;18.730;2022-08-19T13:07:13;11.68;;;6.40;;
42514;SDS011;28144;49.920;18.730;2022-08-19T13:09:39;13.70;;;6.72;;
42514;SDS011;28144;49.920;18.730;2022-08-19T13:12:07;9.93;;;6.15;;
42514;SDS011;28144;49.920;18.730;2022-08-19T13:14:38;11.00;;;6.18;;
42514;SDS011;28144;49.920;18.730;2022-08-19T13:17:07;14.32;;;7.50;;
42514;SDS011;28144;49.920;18.730;2022-08-19T13:19:35;15.25;;;6.88;;
42514;SDS011;28144;49.920;18.730;2022-08-19T13:22:01;10.27;;;6.85;;
42514;SDS011;28144;49.920;18.730;2022-08-19T13:24:27;16.17;;;7.15;;
42514;SDS011;28144;49.920;18.730;2022-08-19T13:26:53;9.75;;;7.13;;
42514;SDS011;28144;49.920;18.730;2022-08-19T13:29:19;10.23;;;6.88;;
42514;SDS011;28144;49.920;18.730;2022-08-19T13:32:03;13.10;;;7.68;;
42514;SDS011;28144;49.920;18.730;2022-08-19T13:34:47;13.77;;;8.05;;
42514;SDS011;28144;49.920;18.730;2022-08-19T13:37:21;12.23;;;7.03;;
42514;SDS011;28144;49.920;18.730;2022-08-19T13:40:10;13.13;;;6.53;;
42514;SDS011;28144;49.920;18.730;2022-08-19T13:42:41;11.32;;;6.00;;
42514;SDS011;28144;49.920;18.730;2022-08-19T13:45:07;14.85;;;6.00;;
42514;SDS011;28144;49.920;18.730;2022-08-19T13:47:34;11.05;;;6.53;;
42514;SDS011;28144;49.920;18.730;2022-08-19T13:50:02;11.02;;;6.30;;
42514;SDS011;28144;49.920;18.730;2022-08-19T13:52:28;13.27;;;6.10;;
42514;SDS011;28144;49.920;18.730;2022-08-19T13:54:54;10.10;;;5.50;;
42514;SDS011;28144;49.920;18.730;2022-08-19T13:57:20;17.02;;;6.22;;
42514;SDS011;28144;49.920;18.730;2022-08-19T13:59:45;14.05;;;5.82;;
42514;SDS011;28144;49.920;18.730;2022-08-19T14:02:11;11.02;;;5.95;;
42514;SDS011;28144;49.920;18.730;2022-08-19T14:04:37;13.70;;;6.28;;
42514;SDS011;28144;49.920;18.730;2022-08-19T14:07:03;16.13;;;5.80;;
42514;SDS011;28144;49.920;18.730;2022-08-19T14:09:29;8.20;;;5.75;;
42514;SDS011;28144;49.920;18.730;2022-08-19T14:11:56;11.77;;;6.00;;
42514;SDS011;28144;49.920;18.730;2022-08-19T14:14:22;14.48;;;6.25;;
42514;SDS011;28144;49.920;18.730;2022-08-19T14:16:48;11.63;;;5.97;;
42514;SDS011;28144;49.920;18.730;2022-08-19T14:19:14;16.33;;;6.22;;
42514;SDS011;28144;49.920;18.730;2022-08-19T14:21:40;11.85;;;6.00;;
42514;SDS011;28144;49.920;18.730;2022-08-19T14:24:06;8.95;;;6.03;;
42514;SDS011;28144;49.920;18.730;2022-08-19T14:26:33;12.68;;;5.88;;
42514;SDS011;28144;49.920;18.730;2022-08-19T14:28:59;13.40;;;5.80;;
42514;SDS011;28144;49.920;18.730;2022-08-19T14:31:26;14.75;;;6.28;;
42514;SDS011;28144;49.920;18.730;2022-08-19T14:33:52;18.23;;;5.90;;
42514;SDS011;28144;49.920;18.730;2022-08-19T14:36:18;15.40;;;6.20;;
42514;SDS011;28144;49.920;18.730;2022-08-19T14:38:45;14.35;;;6.47;;
42514;SDS011;28144;49.920;18.730;2022-08-19T14:41:15;11.30;;;5.97;;
42514;SDS011;28144;49.920;18.730;2022-08-19T14:43:43;10.05;;;5.85;;
42514;SDS011;28144;49.920;18.730;2022-08-19T14:46:13;9.30;;;6.30;;
42514;SDS011;28144;49.920;18.730;2022-08-19T14:48:41;14.02;;;6.38;;
42514;SDS011;28144;49.920;18.730;2022-08-19T14:51:07;10.32;;;6.20;;
42514;SDS011;28144;49.920;18.730;2022-08-19T14:53:33;15.30;;;7.10;;
42514;SDS011;28144;49.920;18.730;2022-08-19T14:55:59;15.75;;;6.43;;
42514;SDS011;28144;49.920;18.730;2022-08-19T14:58:26;10.57;;;5.95;;
42514;SDS011;28144;49.920;18.730;2022-08-19T15:00:52;16.98;;;6.65;;
42514;SDS011;28144;49.920;18.730;2022-08-19T15:03:17;12.90;;;6.50;;
42514;SDS011;28144;49.920;18.730;2022-08-19T15:05:43;16.10;;;8.07;;
42514;SDS011;28144;49.920;18.730;2022-08-19T15:08:09;17.20;;;7.15;;
42514;SDS011;28144;49.920;18.730;2022-08-19T15:10:35;15.82;;;7.63;;
42514;SDS011;28144;49.920;18.730;2022-08-19T15:13:02;16.70;;;7.45;;
42514;SDS011;28144;49.920;18.730;2022-08-19T15:15:28;14.10;;;7.22;;
42514;SDS011;28144;49.920;18.730;2022-08-19T15:17:54;18.88;;;7.88;;
42514;SDS011;28144;49.920;18.730;2022-08-19T15:20:21;17.77;;;7.18;;
42514;SDS011;28144;49.920;18.730;2022-08-19T15:22:47;15.40;;;7.40;;
42514;SDS011;28144;49.920;18.730;2022-08-19T15:25:14;14.07;;;6.63;;
42514;SDS011;28144;49.920;18.730;2022-08-19T15:27:41;15.80;;;7.18;;
42514;SDS011;28144;49.920;18.730;2022-08-19T15:30:09;12.93;;;6.20;;
42514;SDS011;28144;49.920;18.730;2022-08-19T15:32:35;15.05;;;6.78;;
42514;SDS011;28144;49.920;18.730;2022-08-19T15:35:02;13.85;;;7.10;;
42514;SDS011;28144;49.920;18.730;2022-08-19T15:37:32;28.00;;;7.45;;
42514;SDS011;28144;49.920;18.730;2022-08-19T15:42:23;18.48;;;7.15;;
42514;SDS011;28144;49.920;18.730;2022-08-19T15:44:51;19.15;;;6.93;;
42514;SDS011;28144;49.920;18.730;2022-08-19T15:47:18;15.52;;;7.18;;
42514;SDS011;28144;49.920;18.730;2022-08-19T15:49:44;16.45;;;7.05;;